JAF7CB LEMG-EBOS
Flight info
| Callsign | JAF7CB |
|---|---|
| Flight time | N/A |
| Altitude | 36000 |
| Route | BLN DCT MORAL DCT BEXID DCT VTB DCT RBO N867 DGO DCT CEGAM L176 LUSEM DCT LULUT DCT ADABI DCT BOKNO UN858 VANAD UN874 BAMES UT191 PODEM UN873 BAZOS DCT BELDI DCT VEKIN DCT ADUTO N873 FERDI |
| Aircraft | B38M/M-SDE1FGHILORVWXY/HB1 |
Departure
| Time | N/A |
|---|---|
| Airport | Málaga-Costa del Sol Airport (LEMG) |
Arrival
| Time | 2026-05-05 12:28 |
|---|---|
| Airport | Ostend-Bruges International Airport (EBOS) |
| Time | Latitude | Longitude | Altitude | Speed | Heading |
|---|---|---|---|---|---|
| 2026-05-05 10:26 | 37.94711 | -3.70335 | 27747 ft | 479 kts | 10° |
| 2026-05-05 10:26 | 37.97918 | -3.69107 | 27956 ft | 482 kts | 10° |
| 2026-05-05 10:27 | 38.01135 | -3.67878 | 28192 ft | 484 kts | 10° |
| 2026-05-05 10:27 | 38.04377 | -3.66639 | 28395 ft | 487 kts | 10° |
| 2026-05-05 10:27 | 38.07637 | -3.65392 | 28617 ft | 489 kts | 10° |
| 2026-05-05 10:27 | 38.10901 | -3.64141 | 28854 ft | 491 kts | 9° |
| 2026-05-05 10:28 | 38.14140 | -3.62917 | 29098 ft | 490 kts | 7° |
| 2026-05-05 10:28 | 38.17466 | -3.62291 | 29278 ft | 480 kts | 356° |
| 2026-05-05 10:28 | 38.20814 | -3.61959 | 29443 ft | 484 kts | 356° |
| 2026-05-05 10:28 | 38.24169 | -3.61618 | 29662 ft | 485 kts | 356° |
| 2026-05-05 10:29 | 38.27540 | -3.61289 | 29874 ft | 486 kts | 356° |
| 2026-05-05 10:29 | 38.30922 | -3.60961 | 30086 ft | 488 kts | 356° |
| 2026-05-05 10:29 | 38.34319 | -3.60632 | 30280 ft | 490 kts | 356° |
| 2026-05-05 10:29 | 38.37724 | -3.60303 | 30474 ft | 492 kts | 356° |
| 2026-05-05 10:30 | 38.41143 | -3.59971 | 30708 ft | 491 kts | 356° |
| 2026-05-05 10:30 | 38.44553 | -3.59640 | 30997 ft | 491 kts | 356° |
| 2026-05-05 10:30 | 38.47952 | -3.59310 | 31243 ft | 490 kts | 356° |
| 2026-05-05 10:30 | 38.51352 | -3.58980 | 31467 ft | 490 kts | 356° |
| 2026-05-05 10:31 | 38.54709 | -3.58653 | 31670 ft | 491 kts | 356° |
| 2026-05-05 10:31 | 38.58116 | -3.58322 | 31892 ft | 491 kts | 356° |
| 2026-05-05 10:31 | 38.61519 | -3.57990 | 32136 ft | 490 kts | 356° |
| 2026-05-05 10:31 | 38.64922 | -3.57658 | 32367 ft | 490 kts | 356° |
| 2026-05-05 10:32 | 38.68318 | -3.57326 | 32587 ft | 489 kts | 356° |
| 2026-05-05 10:32 | 38.71718 | -3.56994 | 32786 ft | 490 kts | 356° |
| 2026-05-05 10:32 | 38.75114 | -3.56661 | 33006 ft | 489 kts | 356° |
| 2026-05-05 10:32 | 38.78508 | -3.56330 | 33223 ft | 489 kts | 356° |
| 2026-05-05 10:33 | 38.81905 | -3.55996 | 33389 ft | 489 kts | 356° |
| 2026-05-05 10:33 | 38.85308 | -3.55662 | 33602 ft | 489 kts | 356° |
| 2026-05-05 10:33 | 38.88701 | -3.55329 | 33808 ft | 489 kts | 356° |
| 2026-05-05 10:33 | 38.92093 | -3.54995 | 34016 ft | 488 kts | 356° |
| 2026-05-05 10:34 | 38.95435 | -3.54667 | 34190 ft | 488 kts | 356° |
| 2026-05-05 10:34 | 38.98819 | -3.54333 | 34355 ft | 488 kts | 356° |
| 2026-05-05 10:34 | 39.02205 | -3.53996 | 34514 ft | 487 kts | 356° |
| 2026-05-05 10:34 | 39.05585 | -3.53661 | 34652 ft | 488 kts | 356° |
| 2026-05-05 10:35 | 39.08975 | -3.53324 | 34780 ft | 488 kts | 356° |
| 2026-05-05 10:35 | 39.12368 | -3.52987 | 34928 ft | 488 kts | 356° |
| 2026-05-05 10:35 | 39.15756 | -3.52650 | 35078 ft | 488 kts | 356° |
| 2026-05-05 10:35 | 39.19144 | -3.52312 | 35222 ft | 488 kts | 356° |
| 2026-05-05 10:36 | 39.22530 | -3.51974 | 35366 ft | 488 kts | 356° |
| 2026-05-05 10:36 | 39.25918 | -3.51636 | 35506 ft | 488 kts | 356° |
| 2026-05-05 10:36 | 39.29313 | -3.51297 | 35636 ft | 488 kts | 356° |
| 2026-05-05 10:36 | 39.32701 | -3.50958 | 35758 ft | 488 kts | 356° |
| 2026-05-05 10:37 | 39.36084 | -3.50619 | 35883 ft | 488 kts | 356° |
| 2026-05-05 10:37 | 39.39419 | -3.50285 | 36009 ft | 487 kts | 356° |
| 2026-05-05 10:37 | 39.46179 | -3.49606 | 36016 ft | 487 kts | 356° |
| 2026-05-05 10:38 | 39.52946 | -3.48925 | 36016 ft | 487 kts | 356° |
| 2026-05-05 10:38 | 39.59718 | -3.48246 | 36016 ft | 487 kts | 356° |
| 2026-05-05 10:39 | 39.66451 | -3.47571 | 36018 ft | 488 kts | 356° |
| 2026-05-05 10:39 | 39.73226 | -3.46890 | 36012 ft | 488 kts | 356° |
| 2026-05-05 10:40 | 39.79991 | -3.45924 | 36019 ft | 493 kts | 2° |
| 2026-05-05 10:40 | 39.86779 | -3.44507 | 36016 ft | 493 kts | 1° |
| 2026-05-05 10:41 | 39.93516 | -3.43164 | 36018 ft | 493 kts | 1° |
| 2026-05-05 10:41 | 40.00300 | -3.41815 | 36020 ft | 493 kts | 1° |
| 2026-05-05 10:42 | 40.10489 | -3.39785 | 36015 ft | 494 kts | 1° |
| 2026-05-05 10:43 | 40.17295 | -3.38425 | 36011 ft | 494 kts | 1° |
| 2026-05-05 10:43 | 40.24044 | -3.37074 | 36000 ft | 493 kts | 1° |
| 2026-05-05 10:44 | 40.30836 | -3.35711 | 35999 ft | 494 kts | 1° |
| 2026-05-05 10:44 | 40.37640 | -3.34344 | 35999 ft | 493 kts | 1° |
| 2026-05-05 10:45 | 40.44431 | -3.32976 | 35999 ft | 493 kts | 1° |
| 2026-05-05 10:45 | 40.51181 | -3.31613 | 35986 ft | 493 kts | 1° |
| 2026-05-05 10:46 | 40.57971 | -3.30241 | 35993 ft | 493 kts | 1° |
| 2026-05-05 10:46 | 40.64763 | -3.28864 | 35988 ft | 493 kts | 2° |
| 2026-05-05 10:47 | 40.71549 | -3.27486 | 35985 ft | 493 kts | 2° |
| 2026-05-05 10:47 | 40.78331 | -3.26107 | 35992 ft | 493 kts | 2° |
| 2026-05-05 10:48 | 40.85118 | -3.24709 | 36007 ft | 494 kts | 3° |
| 2026-05-05 10:48 | 40.91890 | -3.23193 | 36005 ft | 494 kts | 3° |
| 2026-05-05 10:49 | 40.98628 | -3.21696 | 35999 ft | 493 kts | 3° |
| 2026-05-05 10:49 | 41.05397 | -3.20186 | 36004 ft | 493 kts | 3° |
| 2026-05-05 10:50 | 41.12182 | -3.18660 | 35992 ft | 494 kts | 3° |
| 2026-05-05 10:50 | 41.18953 | -3.17135 | 36005 ft | 493 kts | 4° |
| 2026-05-05 10:51 | 41.25728 | -3.15605 | 36003 ft | 493 kts | 4° |
| 2026-05-05 10:51 | 41.32456 | -3.14085 | 35996 ft | 493 kts | 4° |
| 2026-05-05 10:52 | 41.39221 | -3.12551 | 35995 ft | 493 kts | 4° |
| 2026-05-05 10:52 | 41.45975 | -3.11017 | 36000 ft | 492 kts | 4° |
| 2026-05-05 10:53 | 41.52734 | -3.09484 | 36006 ft | 492 kts | 4° |
| 2026-05-05 10:53 | 41.59490 | -3.07951 | 36007 ft | 492 kts | 4° |
| 2026-05-05 10:54 | 41.66208 | -3.06424 | 36008 ft | 492 kts | 4° |
| 2026-05-05 10:54 | 41.72959 | -3.04884 | 36004 ft | 493 kts | 4° |
| 2026-05-05 10:55 | 41.79720 | -3.03328 | 36009 ft | 493 kts | 4° |
| 2026-05-05 10:55 | 41.86486 | -3.01770 | 36007 ft | 493 kts | 4° |
| 2026-05-05 10:56 | 41.93248 | -3.00208 | 36016 ft | 493 kts | 4° |
| 2026-05-05 10:56 | 42.00012 | -2.98643 | 36024 ft | 493 kts | 4° |
| 2026-05-05 10:57 | 42.06769 | -2.97075 | 36009 ft | 491 kts | 5° |
| 2026-05-05 10:57 | 42.13503 | -2.95512 | 36009 ft | 491 kts | 5° |
| 2026-05-05 10:58 | 42.20242 | -2.93942 | 36008 ft | 491 kts | 5° |
| 2026-05-05 10:58 | 42.26936 | -2.92381 | 36010 ft | 491 kts | 5° |
| 2026-05-05 10:59 | 42.33679 | -2.90803 | 36018 ft | 491 kts | 5° |
| 2026-05-05 10:59 | 42.40417 | -2.89224 | 36032 ft | 492 kts | 5° |
| 2026-05-05 10:59 | 42.43758 | -2.88126 | 36000 ft | 497 kts | 17° |
| 2026-05-05 11:00 | 42.46829 | -2.85963 | 36015 ft | 502 kts | 34° |
| 2026-05-05 11:00 | 42.52185 | -2.79779 | 36017 ft | 507 kts | 39° |
| 2026-05-05 11:01 | 42.57479 | -2.73445 | 36021 ft | 508 kts | 40° |
| 2026-05-05 11:01 | 42.62761 | -2.67065 | 36011 ft | 508 kts | 40° |
| 2026-05-05 11:02 | 42.68001 | -2.60719 | 36020 ft | 508 kts | 40° |
| 2026-05-05 11:02 | 42.73277 | -2.54313 | 36013 ft | 508 kts | 40° |
| 2026-05-05 11:03 | 42.78548 | -2.47898 | 36018 ft | 507 kts | 40° |
| 2026-05-05 11:03 | 42.83806 | -2.41485 | 36017 ft | 507 kts | 40° |
| 2026-05-05 11:04 | 42.89050 | -2.35072 | 36018 ft | 506 kts | 40° |
| 2026-05-05 11:04 | 42.94293 | -2.28647 | 36028 ft | 506 kts | 40° |
| 2026-05-05 11:05 | 42.99528 | -2.22212 | 36020 ft | 505 kts | 40° |
| 2026-05-05 11:05 | 43.04718 | -2.15810 | 36022 ft | 504 kts | 40° |
| 2026-05-05 11:06 | 43.09920 | -2.09382 | 36021 ft | 504 kts | 41° |
| 2026-05-05 11:06 | 43.15110 | -2.02955 | 36015 ft | 502 kts | 41° |
| 2026-05-05 11:07 | 43.20291 | -1.96526 | 36016 ft | 502 kts | 41° |
| 2026-05-05 11:07 | 43.25472 | -1.90081 | 36031 ft | 503 kts | 41° |
| 2026-05-05 11:08 | 43.30627 | -1.83720 | 36015 ft | 500 kts | 36° |
| 2026-05-05 11:08 | 43.36589 | -1.78785 | 36013 ft | 498 kts | 30° |
| 2026-05-05 11:09 | 43.42328 | -1.73535 | 36022 ft | 499 kts | 32° |
| 2026-05-05 11:09 | 43.48119 | -1.68292 | 36021 ft | 498 kts | 32° |
| 2026-05-05 11:10 | 43.53908 | -1.63063 | 36016 ft | 497 kts | 32° |
| 2026-05-05 11:10 | 43.59698 | -1.57822 | 36016 ft | 497 kts | 32° |
| 2026-05-05 11:11 | 43.65470 | -1.52585 | 36017 ft | 497 kts | 32° |
| 2026-05-05 11:11 | 43.71241 | -1.47338 | 36018 ft | 497 kts | 32° |
| 2026-05-05 11:12 | 43.76043 | -1.42961 | 36018 ft | 497 kts | 32° |
| 2026-05-05 11:12 | 43.81815 | -1.37690 | 36018 ft | 497 kts | 32° |
| 2026-05-05 11:13 | 43.87582 | -1.32410 | 36018 ft | 497 kts | 32° |
| 2026-05-05 11:13 | 43.93352 | -1.27115 | 36008 ft | 497 kts | 32° |
| 2026-05-05 11:14 | 43.99115 | -1.21816 | 36007 ft | 497 kts | 32° |
| 2026-05-05 11:14 | 44.04844 | -1.16533 | 36004 ft | 495 kts | 33° |
| 2026-05-05 11:15 | 44.10556 | -1.11254 | 35996 ft | 492 kts | 33° |
| 2026-05-05 11:15 | 44.16252 | -1.05979 | 35985 ft | 492 kts | 33° |
| 2026-05-05 11:16 | 44.21953 | -1.00685 | 35981 ft | 492 kts | 33° |
| 2026-05-05 11:16 | 44.27651 | -0.95382 | 35980 ft | 492 kts | 33° |
| 2026-05-05 11:17 | 44.33335 | -0.90080 | 35976 ft | 491 kts | 33° |
| 2026-05-05 11:17 | 44.39017 | -0.84782 | 35972 ft | 490 kts | 31° |
| 2026-05-05 11:18 | 44.45139 | -0.80794 | 35957 ft | 489 kts | 23° |
| 2026-05-05 11:18 | 44.51370 | -0.76964 | 35973 ft | 489 kts | 22° |
| 2026-05-05 11:19 | 44.57609 | -0.73149 | 35972 ft | 489 kts | 22° |
| 2026-05-05 11:19 | 44.63843 | -0.69330 | 35971 ft | 488 kts | 22° |
| 2026-05-05 11:20 | 44.70063 | -0.65512 | 35962 ft | 488 kts | 23° |
| 2026-05-05 11:20 | 44.76279 | -0.61685 | 35960 ft | 487 kts | 23° |
| 2026-05-05 11:21 | 44.82489 | -0.57854 | 35962 ft | 487 kts | 23° |
| 2026-05-05 11:21 | 44.88695 | -0.54018 | 35961 ft | 486 kts | 23° |
| 2026-05-05 11:22 | 44.94850 | -0.50202 | 35962 ft | 486 kts | 23° |
| 2026-05-05 11:22 | 45.01039 | -0.46357 | 35963 ft | 485 kts | 23° |
| 2026-05-05 11:23 | 45.07221 | -0.42507 | 35962 ft | 485 kts | 23° |
| 2026-05-05 11:23 | 45.13404 | -0.38648 | 35961 ft | 485 kts | 23° |
| 2026-05-05 11:24 | 45.19589 | -0.34777 | 35953 ft | 485 kts | 23° |
| 2026-05-05 11:24 | 45.25729 | -0.30927 | 35954 ft | 486 kts | 23° |
| 2026-05-05 11:25 | 45.31899 | -0.27047 | 35943 ft | 484 kts | 24° |
| 2026-05-05 11:25 | 45.38067 | -0.23160 | 35942 ft | 484 kts | 24° |
| 2026-05-05 11:26 | 45.44226 | -0.19269 | 35934 ft | 484 kts | 24° |
| 2026-05-05 11:26 | 45.50394 | -0.15364 | 35934 ft | 484 kts | 24° |
| 2026-05-05 11:27 | 45.56555 | -0.11453 | 35938 ft | 485 kts | 24° |
| 2026-05-05 11:27 | 45.62711 | -0.07536 | 35933 ft | 484 kts | 24° |
| 2026-05-05 11:28 | 45.68872 | -0.03605 | 35929 ft | 484 kts | 24° |
| 2026-05-05 11:28 | 45.74991 | 0.00306 | 35921 ft | 484 kts | 24° |
| 2026-05-05 11:29 | 45.81145 | 0.04251 | 35915 ft | 483 kts | 24° |
| 2026-05-05 11:29 | 45.87287 | 0.08196 | 35911 ft | 483 kts | 24° |
| 2026-05-05 11:30 | 45.93426 | 0.12150 | 35914 ft | 483 kts | 24° |
| 2026-05-05 11:30 | 45.99563 | 0.16112 | 35915 ft | 483 kts | 25° |
| 2026-05-05 11:31 | 46.05650 | 0.20053 | 35918 ft | 483 kts | 25° |
| 2026-05-05 11:31 | 46.11785 | 0.24032 | 35908 ft | 483 kts | 25° |
| 2026-05-05 11:32 | 46.17913 | 0.28018 | 35899 ft | 483 kts | 25° |
| 2026-05-05 11:32 | 46.24043 | 0.32014 | 35898 ft | 483 kts | 25° |
| 2026-05-05 11:33 | 46.30173 | 0.36021 | 35893 ft | 483 kts | 25° |
| 2026-05-05 11:33 | 46.36298 | 0.40033 | 35890 ft | 483 kts | 25° |
| 2026-05-05 11:34 | 46.42413 | 0.44048 | 35888 ft | 483 kts | 25° |
| 2026-05-05 11:34 | 46.48539 | 0.48079 | 35887 ft | 484 kts | 25° |
| 2026-05-05 11:35 | 46.54661 | 0.52116 | 35887 ft | 483 kts | 24° |
| 2026-05-05 11:35 | 46.57798 | 0.53630 | 35884 ft | 482 kts | 12° |
| 2026-05-05 11:35 | 46.61084 | 0.54673 | 35880 ft | 483 kts | 13° |
| 2026-05-05 11:36 | 46.67653 | 0.56875 | 35889 ft | 484 kts | 13° |
| 2026-05-05 11:36 | 46.74205 | 0.59038 | 35887 ft | 484 kts | 13° |
| 2026-05-05 11:37 | 46.80787 | 0.61215 | 35882 ft | 484 kts | 13° |
| 2026-05-05 11:37 | 46.87361 | 0.63394 | 35880 ft | 484 kts | 13° |
| 2026-05-05 11:38 | 46.93934 | 0.65578 | 35879 ft | 484 kts | 13° |
| 2026-05-05 11:38 | 47.00502 | 0.67767 | 35882 ft | 484 kts | 13° |
| 2026-05-05 11:39 | 47.07126 | 0.69425 | 35879 ft | 483 kts | 4° |
| 2026-05-05 11:39 | 47.13804 | 0.70112 | 35866 ft | 484 kts | 4° |
| 2026-05-05 11:40 | 47.20527 | 0.70815 | 35864 ft | 484 kts | 4° |
| 2026-05-05 11:40 | 47.27243 | 0.71516 | 35867 ft | 484 kts | 4° |
| 2026-05-05 11:41 | 47.33985 | 0.72222 | 35862 ft | 485 kts | 4° |
| 2026-05-05 11:41 | 47.40719 | 0.72930 | 35862 ft | 484 kts | 4° |
| 2026-05-05 11:42 | 47.47400 | 0.73635 | 35861 ft | 484 kts | 5° |
| 2026-05-05 11:42 | 47.50704 | 0.74486 | 35848 ft | 480 kts | 19° |
| 2026-05-05 11:42 | 47.53873 | 0.76063 | 35850 ft | 481 kts | 19° |
| 2026-05-05 11:43 | 47.60266 | 0.79130 | 35859 ft | 482 kts | 19° |
| 2026-05-05 11:43 | 47.66637 | 0.82262 | 35852 ft | 482 kts | 20° |
| 2026-05-05 11:44 | 47.73003 | 0.85407 | 35849 ft | 483 kts | 20° |
| 2026-05-05 11:44 | 47.79338 | 0.88545 | 35850 ft | 482 kts | 20° |
| 2026-05-05 11:45 | 47.85708 | 0.91732 | 35845 ft | 482 kts | 20° |
| 2026-05-05 11:45 | 47.92070 | 0.94944 | 35841 ft | 483 kts | 20° |
| 2026-05-05 11:46 | 47.98433 | 0.98162 | 35843 ft | 483 kts | 20° |
| 2026-05-05 11:46 | 48.04805 | 1.01393 | 35840 ft | 483 kts | 20° |
| 2026-05-05 11:47 | 48.11151 | 1.04620 | 35833 ft | 483 kts | 20° |
| 2026-05-05 11:47 | 48.17520 | 1.07868 | 35828 ft | 483 kts | 20° |
| 2026-05-05 11:48 | 48.27104 | 1.12750 | 35840 ft | 485 kts | 20° |
| 2026-05-05 11:48 | 48.33487 | 1.16008 | 35836 ft | 484 kts | 20° |
| 2026-05-05 11:49 | 48.39832 | 1.19256 | 35838 ft | 485 kts | 20° |
| 2026-05-05 11:49 | 48.46226 | 1.22538 | 35853 ft | 485 kts | 20° |
| 2026-05-05 11:50 | 48.52625 | 1.25830 | 35855 ft | 485 kts | 20° |
| 2026-05-05 11:50 | 48.58994 | 1.29045 | 35853 ft | 485 kts | 20° |
| 2026-05-05 11:51 | 48.65407 | 1.32278 | 35853 ft | 486 kts | 20° |
| 2026-05-05 11:51 | 48.71827 | 1.35525 | 35870 ft | 486 kts | 20° |
| 2026-05-05 11:52 | 48.78200 | 1.38757 | 35866 ft | 486 kts | 20° |
| 2026-05-05 11:52 | 48.84624 | 1.42023 | 35882 ft | 486 kts | 20° |
| 2026-05-05 11:53 | 48.91038 | 1.45294 | 35880 ft | 487 kts | 20° |
| 2026-05-05 11:53 | 48.97484 | 1.48517 | 35871 ft | 487 kts | 14° |
| 2026-05-05 11:54 | 49.04181 | 1.50149 | 35859 ft | 488 kts | 9° |
| 2026-05-05 11:54 | 49.10912 | 1.51732 | 35880 ft | 489 kts | 9° |
| 2026-05-05 11:55 | 49.17598 | 1.53299 | 35880 ft | 489 kts | 9° |
| 2026-05-05 11:55 | 49.24284 | 1.55291 | 35868 ft | 487 kts | 21° |
| 2026-05-05 11:56 | 49.27276 | 1.57650 | 35875 ft | 482 kts | 38° |
| 2026-05-05 11:56 | 49.29828 | 1.60954 | 35888 ft | 481 kts | 45° |
| 2026-05-05 11:56 | 49.34769 | 1.67939 | 35884 ft | 484 kts | 45° |
| 2026-05-05 11:57 | 49.39630 | 1.75013 | 35871 ft | 484 kts | 46° |
| 2026-05-05 11:57 | 49.44501 | 1.82165 | 35880 ft | 485 kts | 46° |
| 2026-05-05 11:58 | 49.49379 | 1.89348 | 35887 ft | 485 kts | 46° |
| 2026-05-05 11:58 | 49.53432 | 1.95336 | 35890 ft | 486 kts | 46° |
| 2026-05-05 11:59 | 49.59103 | 2.03739 | 35886 ft | 487 kts | 46° |
| 2026-05-05 11:59 | 49.63986 | 2.10998 | 35883 ft | 488 kts | 46° |
| 2026-05-05 12:00 | 49.68050 | 2.17054 | 35879 ft | 488 kts | 46° |
| 2026-05-05 12:00 | 49.72924 | 2.24339 | 35881 ft | 488 kts | 46° |
| 2026-05-05 12:01 | 49.77801 | 2.31650 | 35891 ft | 488 kts | 46° |
| 2026-05-05 12:01 | 49.82658 | 2.38950 | 35887 ft | 488 kts | 46° |
| 2026-05-05 12:02 | 49.87508 | 2.46262 | 35898 ft | 480 kts | 46° |
| 2026-05-05 12:02 | 49.92278 | 2.53474 | 35889 ft | 478 kts | 46° |
| 2026-05-05 12:03 | 49.97033 | 2.60689 | 35888 ft | 478 kts | 46° |
| 2026-05-05 12:03 | 50.01758 | 2.67878 | 35887 ft | 478 kts | 46° |
| 2026-05-05 12:04 | 50.06514 | 2.75136 | 34904 ft | 483 kts | 46° |
| 2026-05-05 12:04 | 50.08935 | 2.78839 | 33928 ft | 489 kts | 47° |
| 2026-05-05 12:04 | 50.11355 | 2.82546 | 33228 ft | 487 kts | 47° |
| 2026-05-05 12:05 | 50.13789 | 2.86279 | 32391 ft | 489 kts | 47° |
| 2026-05-05 12:05 | 50.16191 | 2.89968 | 31927 ft | 482 kts | 47° |
| 2026-05-05 12:05 | 50.18572 | 2.93634 | 31241 ft | 480 kts | 47° |
| 2026-05-05 12:05 | 50.20951 | 2.97299 | 30471 ft | 480 kts | 47° |
| 2026-05-05 12:06 | 50.23327 | 3.00965 | 29682 ft | 481 kts | 47° |
| 2026-05-05 12:06 | 50.25695 | 3.04625 | 28940 ft | 475 kts | 47° |
| 2026-05-05 12:06 | 50.28000 | 3.08191 | 27868 ft | 470 kts | 47° |
| 2026-05-05 12:06 | 50.30310 | 3.11772 | 26972 ft | 464 kts | 47° |
| 2026-05-05 12:07 | 50.32599 | 3.15325 | 26369 ft | 461 kts | 47° |
| 2026-05-05 12:07 | 50.34863 | 3.18846 | 25784 ft | 457 kts | 47° |
| 2026-05-05 12:07 | 50.37108 | 3.22338 | 25185 ft | 454 kts | 47° |
| 2026-05-05 12:07 | 50.39348 | 3.25794 | 24574 ft | 451 kts | 44° |
| 2026-05-05 12:08 | 50.41936 | 3.28586 | 23870 ft | 453 kts | 28° |
| 2026-05-05 12:08 | 50.44732 | 3.30801 | 23335 ft | 447 kts | 28° |
| 2026-05-05 12:08 | 50.47493 | 3.33004 | 22768 ft | 444 kts | 28° |
| 2026-05-05 12:08 | 50.50243 | 3.35173 | 22177 ft | 440 kts | 27° |
| 2026-05-05 12:09 | 50.53029 | 3.37142 | 21512 ft | 439 kts | 24° |
| 2026-05-05 12:09 | 50.55835 | 3.39049 | 20953 ft | 436 kts | 24° |
| 2026-05-05 12:09 | 50.58603 | 3.40953 | 20410 ft | 432 kts | 25° |
| 2026-05-05 12:09 | 50.61347 | 3.42850 | 19848 ft | 429 kts | 25° |
| 2026-05-05 12:10 | 50.64067 | 3.44734 | 19288 ft | 426 kts | 25° |
| 2026-05-05 12:10 | 50.66776 | 3.46614 | 18732 ft | 423 kts | 24° |
| 2026-05-05 12:10 | 50.69432 | 3.48460 | 18158 ft | 421 kts | 24° |
| 2026-05-05 12:10 | 50.72101 | 3.50317 | 17612 ft | 418 kts | 24° |
| 2026-05-05 12:11 | 50.74756 | 3.52167 | 17097 ft | 414 kts | 24° |
| 2026-05-05 12:11 | 50.77377 | 3.53996 | 16577 ft | 411 kts | 24° |
| 2026-05-05 12:11 | 50.79989 | 3.55819 | 16060 ft | 408 kts | 24° |
| 2026-05-05 12:11 | 50.82574 | 3.57627 | 15563 ft | 404 kts | 24° |
| 2026-05-05 12:12 | 50.85133 | 3.59408 | 15064 ft | 400 kts | 22° |
| 2026-05-05 12:12 | 50.87823 | 3.60468 | 14428 ft | 401 kts | 4° |
| 2026-05-05 12:12 | 50.90581 | 3.60080 | 13963 ft | 396 kts | 345° |
| 2026-05-05 12:12 | 50.93077 | 3.58354 | 13549 ft | 390 kts | 327° |
| 2026-05-05 12:13 | 50.95108 | 3.55565 | 13085 ft | 385 kts | 310° |
| 2026-05-05 12:13 | 50.96814 | 3.52318 | 12615 ft | 381 kts | 310° |
| 2026-05-05 12:13 | 50.98651 | 3.49298 | 12075 ft | 380 kts | 315° |
| 2026-05-05 12:13 | 51.00520 | 3.46353 | 11599 ft | 377 kts | 315° |
| 2026-05-05 12:14 | 51.02354 | 3.43424 | 11248 ft | 370 kts | 315° |
| 2026-05-05 12:14 | 51.04133 | 3.40558 | 11085 ft | 358 kts | 315° |
| 2026-05-05 12:14 | 51.05828 | 3.37816 | 10914 ft | 348 kts | 315° |
| 2026-05-05 12:14 | 51.07498 | 3.35108 | 10747 ft | 338 kts | 315° |
| 2026-05-05 12:15 | 51.09118 | 3.32477 | 10589 ft | 328 kts | 315° |
| 2026-05-05 12:15 | 51.10695 | 3.29911 | 10438 ft | 318 kts | 314° |
| 2026-05-05 12:15 | 51.12219 | 3.27429 | 10291 ft | 309 kts | 314° |
| 2026-05-05 12:15 | 51.13695 | 3.25024 | 10146 ft | 300 kts | 314° |
| 2026-05-05 12:16 | 51.15139 | 3.22669 | 10007 ft | 291 kts | 315° |
| 2026-05-05 12:16 | 51.16538 | 3.20383 | 9770 ft | 287 kts | 315° |
| 2026-05-05 12:16 | 51.17926 | 3.18114 | 9461 ft | 285 kts | 315° |
| 2026-05-05 12:16 | 51.19286 | 3.15887 | 9154 ft | 283 kts | 315° |
| 2026-05-05 12:17 | 51.20658 | 3.13642 | 8853 ft | 281 kts | 315° |
| 2026-05-05 12:17 | 51.22015 | 3.11417 | 8549 ft | 279 kts | 315° |
| 2026-05-05 12:17 | 51.23363 | 3.09206 | 8267 ft | 277 kts | 315° |
| 2026-05-05 12:17 | 51.24701 | 3.07010 | 7960 ft | 275 kts | 315° |
| 2026-05-05 12:18 | 51.26029 | 3.04827 | 7666 ft | 273 kts | 315° |
| 2026-05-05 12:18 | 51.27351 | 3.02651 | 7378 ft | 271 kts | 315° |
| 2026-05-05 12:18 | 51.28651 | 3.00489 | 7079 ft | 270 kts | 312° |
| 2026-05-05 12:18 | 51.29535 | 2.97868 | 6727 ft | 271 kts | 284° |
| 2026-05-05 12:19 | 51.29577 | 2.94877 | 6446 ft | 270 kts | 260° |
| 2026-05-05 12:19 | 51.29178 | 2.91961 | 6190 ft | 267 kts | 258° |
| 2026-05-05 12:19 | 51.28771 | 2.89083 | 5904 ft | 265 kts | 258° |
| 2026-05-05 12:19 | 51.28362 | 2.86262 | 5622 ft | 259 kts | 258° |
| 2026-05-05 12:20 | 51.27960 | 2.83521 | 5352 ft | 249 kts | 258° |
| 2026-05-05 12:20 | 51.27567 | 2.80871 | 5078 ft | 241 kts | 258° |
| 2026-05-05 12:20 | 51.27184 | 2.78300 | 4820 ft | 236 kts | 258° |
| 2026-05-05 12:20 | 51.26803 | 2.75756 | 4583 ft | 234 kts | 258° |
| 2026-05-05 12:21 | 51.26427 | 2.73252 | 4351 ft | 230 kts | 258° |
| 2026-05-05 12:21 | 51.26058 | 2.70799 | 4126 ft | 226 kts | 258° |
| 2026-05-05 12:21 | 51.25695 | 2.68392 | 3962 ft | 219 kts | 258° |
| 2026-05-05 12:21 | 51.25347 | 2.66090 | 3867 ft | 206 kts | 258° |
| 2026-05-05 12:22 | 51.25021 | 2.63924 | 3760 ft | 198 kts | 259° |
| 2026-05-05 12:22 | 51.24696 | 2.61790 | 3669 ft | 197 kts | 259° |
| 2026-05-05 12:22 | 51.24376 | 2.59670 | 3591 ft | 197 kts | 259° |
| 2026-05-05 12:22 | 51.24036 | 2.57553 | 3478 ft | 197 kts | 252° |
| 2026-05-05 12:23 | 51.23234 | 2.55828 | 3269 ft | 196 kts | 214° |
| 2026-05-05 12:23 | 51.21974 | 2.55130 | 3164 ft | 193 kts | 179° |
| 2026-05-05 12:23 | 51.20646 | 2.55367 | 3142 ft | 192 kts | 163° |
| 2026-05-05 12:23 | 51.19484 | 2.56278 | 3067 ft | 184 kts | 133° |
| 2026-05-05 12:24 | 51.18772 | 2.57876 | 3009 ft | 177 kts | 107° |
| 2026-05-05 12:24 | 51.18500 | 2.59778 | 2978 ft | 176 kts | 95° |
| 2026-05-05 12:24 | 51.18302 | 2.61698 | 2902 ft | 176 kts | 96° |
| 2026-05-05 12:24 | 51.18092 | 2.63619 | 2722 ft | 176 kts | 96° |
| 2026-05-05 12:25 | 51.17870 | 2.65536 | 2490 ft | 176 kts | 96° |
| 2026-05-05 12:25 | 51.17640 | 2.67460 | 2256 ft | 177 kts | 97° |
| 2026-05-05 12:25 | 51.17435 | 2.69386 | 2022 ft | 175 kts | 89° |
| 2026-05-05 12:25 | 51.17530 | 2.71286 | 1816 ft | 170 kts | 74° |
| 2026-05-05 12:26 | 51.17813 | 2.73107 | 1599 ft | 167 kts | 71° |
| 2026-05-05 12:26 | 51.18074 | 2.74787 | 1430 ft | 146 kts | 71° |
| 2026-05-05 12:26 | 51.18306 | 2.76278 | 1219 ft | 138 kts | 70° |
| 2026-05-05 12:26 | 51.18535 | 2.77774 | 984 ft | 139 kts | 72° |
| 2026-05-05 12:27 | 51.18738 | 2.79308 | 815 ft | 142 kts | 72° |
| 2026-05-05 12:27 | 51.18984 | 2.80843 | 663 ft | 143 kts | 69° |
| 2026-05-05 12:27 | 51.19238 | 2.82376 | 499 ft | 143 kts | 73° |
| 2026-05-05 12:27 | 51.19437 | 2.83918 | 313 ft | 141 kts | 74° |
| 2026-05-05 12:28 | 51.19681 | 2.85428 | 94 ft | 140 kts | 73° |
| 2026-05-05 12:28 | 51.19905 | 2.86835 | 18 ft | 110 kts | 76° |
| 2026-05-05 12:28 | 51.20031 | 2.87475 | 19 ft | 27 kts | 36° |
| 2026-05-05 12:28 | 51.20149 | 2.87590 | 16 ft | 15 kts | 24° |
| 2026-05-05 12:29 | 51.20249 | 2.87582 | 16 ft | 15 kts | 344° |
| 2026-05-05 12:29 | 51.20317 | 2.87483 | 16 ft | 14 kts | 271° |
| 2026-05-05 12:29 | 51.20296 | 2.87326 | 19 ft | 15 kts | 258° |
| 2026-05-05 12:29 | 51.20273 | 2.87148 | 16 ft | 17 kts | 258° |
| 2026-05-05 12:30 | 51.20253 | 2.87005 | 17 ft | 13 kts | 257° |
| 2026-05-05 12:30 | 51.20256 | 2.86936 | 17 ft | 3 kts | 310° |
| 2026-05-05 12:30 | 51.20271 | 2.86922 | 17 ft | 1 kts | 342° |
| 2026-05-05 12:30 | 51.20287 | 2.86915 | 19 ft | 3 kts | 344° |
| 2026-05-05 12:31 | 51.20317 | 2.86904 | 17 ft | 2 kts | 347° |